createdAt,value
2024-03-07T00:00:22.902Z,16.80
2024-03-07T00:02:51.826Z,16.73
2024-03-07T00:05:25.537Z,17.08
2024-03-07T00:07:53.292Z,15.50
2024-03-07T00:10:22.566Z,16.27
2024-03-07T00:12:50.518Z,15.68
2024-03-07T00:15:18.836Z,15.25
2024-03-07T00:17:46.830Z,14.70
2024-03-07T00:20:17.148Z,15.00
2024-03-07T00:22:46.675Z,15.13
2024-03-07T00:25:20.302Z,13.77
2024-03-07T00:27:47.939Z,13.35
2024-03-07T00:30:19.414Z,13.60
2024-03-07T00:32:48.310Z,13.43
2024-03-07T00:35:16.296Z,13.82
2024-03-07T00:37:44.009Z,13.45
2024-03-07T00:40:14.156Z,15.50
2024-03-07T00:42:41.772Z,14.98
2024-03-07T00:45:10.362Z,15.50
2024-03-07T00:47:39.341Z,14.82
2024-03-07T00:50:10.530Z,15.45
2024-03-07T00:52:39.167Z,17.40
2024-03-07T00:55:09.433Z,16.55
2024-03-07T00:57:39.186Z,18.55
2024-03-07T01:00:12.830Z,17.23
2024-03-07T01:02:44.196Z,19.30
2024-03-07T01:05:14.300Z,19.45
2024-03-07T01:07:42.335Z,19.75
2024-03-07T01:10:10.569Z,20.40
2024-03-07T01:12:39.642Z,20.52
2024-03-07T01:15:08.107Z,19.25
2024-03-07T01:17:35.835Z,20.50
2024-03-07T01:20:03.845Z,21.00
2024-03-07T01:22:31.431Z,21.95
2024-03-07T01:24:59.149Z,20.17
2024-03-07T01:27:26.800Z,20.48
2024-03-07T01:29:55.881Z,20.27
2024-03-07T01:32:23.597Z,20.98
2024-03-07T01:34:51.345Z,20.70
2024-03-07T01:37:18.962Z,20.98
2024-03-07T01:39:47.724Z,21.63
2024-03-07T01:42:15.668Z,19.70
2024-03-07T01:44:44.980Z,20.27
2024-03-07T01:47:15.621Z,20.45
2024-03-07T01:49:43.344Z,20.45
2024-03-07T01:52:12.724Z,22.15
2024-03-07T01:54:40.446Z,21.38
2024-03-07T01:57:09.146Z,20.13
2024-03-07T01:59:37.372Z,21.02
2024-03-07T02:02:05.455Z,21.00
2024-03-07T02:04:34.466Z,20.67
2024-03-07T02:07:02.134Z,21.33
2024-03-07T02:09:29.762Z,20.73
2024-03-07T02:11:58.194Z,22.05
2024-03-07T02:14:26.209Z,20.67
2024-03-07T02:16:53.867Z,21.20
2024-03-07T02:19:21.839Z,20.80
2024-03-07T02:21:50.790Z,22.42
2024-03-07T02:24:18.446Z,20.80
2024-03-07T02:26:46.099Z,20.20
2024-03-07T02:29:13.797Z,20.77
2024-03-07T02:31:42.672Z,20.90
2024-03-07T02:34:10.437Z,19.73
2024-03-07T02:36:38.140Z,20.77
2024-03-07T02:39:07.413Z,21.40
2024-03-07T02:41:36.065Z,20.38
2024-03-07T02:44:04.774Z,20.98
2024-03-07T02:46:33.328Z,20.38
2024-03-07T02:49:01.242Z,20.55
2024-03-07T02:51:28.945Z,20.15
2024-03-07T02:53:56.638Z,19.90
2024-03-07T02:56:26.045Z,21.00
2024-03-07T02:58:53.935Z,21.33
2024-03-07T03:01:21.693Z,21.00
2024-03-07T03:03:49.584Z,22.00
2024-03-07T03:06:17.268Z,21.73
2024-03-07T03:08:44.916Z,20.92
2024-03-07T03:11:15.137Z,21.27
2024-03-07T03:13:44.984Z,20.58
2024-03-07T03:16:12.624Z,21.70
2024-03-07T03:18:40.332Z,21.52
2024-03-07T03:21:08.769Z,21.58
2024-03-07T03:23:36.751Z,21.38
2024-03-07T03:26:04.803Z,21.05
2024-03-07T03:28:32.826Z,22.15
2024-03-07T03:31:01.809Z,21.63
2024-03-07T03:33:29.531Z,21.48
2024-03-07T03:35:57.483Z,22.50
2024-03-07T03:38:25.251Z,20.90
2024-03-07T03:40:53.068Z,21.05
2024-03-07T03:43:20.843Z,20.33
2024-03-07T03:45:48.871Z,21.80
2024-03-07T03:48:18.276Z,20.83
2024-03-07T03:50:47.579Z,22.05
2024-03-07T03:53:15.453Z,20.73
2024-03-07T03:55:43.121Z,20.52
2024-03-07T03:58:11.609Z,20.70
2024-03-07T04:00:40.320Z,21.00
2024-03-07T04:03:08.266Z,21.02
2024-03-07T04:05:37.375Z,19.90
2024-03-07T04:08:06.521Z,20.98
2024-03-07T04:10:34.143Z,21.65
2024-03-07T04:13:01.898Z,20.17
2024-03-07T04:15:34.127Z,20.67
2024-03-07T04:18:03.673Z,19.90
2024-03-07T04:20:31.371Z,20.20
2024-03-07T04:23:00.345Z,18.83
2024-03-07T04:25:29.455Z,21.58
2024-03-07T04:27:57.050Z,20.27
2024-03-07T04:30:24.625Z,21.45
2024-03-07T04:32:53.230Z,20.55
2024-03-07T04:35:21.082Z,20.85
2024-03-07T04:37:48.770Z,20.35
2024-03-07T04:40:19.109Z,20.55
2024-03-07T04:42:49.666Z,21.67
2024-03-07T04:45:18.256Z,21.38
2024-03-07T04:47:47.220Z,20.80
2024-03-07T04:50:18.461Z,20.55
2024-03-07T04:52:47.410Z,21.70
2024-03-07T04:55:15.813Z,19.90
2024-03-07T04:57:44.942Z,20.60
2024-03-07T05:00:16.903Z,19.73
2024-03-07T05:02:47.552Z,21.30
2024-03-07T05:05:15.936Z,20.98
2024-03-07T05:07:43.741Z,19.63
2024-03-07T05:10:11.927Z,19.67
2024-03-07T05:12:39.550Z,20.88
2024-03-07T05:15:11.022Z,20.88
2024-03-07T05:17:40.173Z,20.60
2024-03-07T05:20:11.221Z,20.95
2024-03-07T05:22:41.670Z,20.27
2024-03-07T05:25:10.290Z,19.67
2024-03-07T05:27:38.140Z,19.80
2024-03-07T05:30:11.187Z,20.30
2024-03-07T05:32:39.843Z,19.80
2024-03-07T05:35:08.754Z,18.98
2024-03-07T05:37:36.646Z,19.83
2024-03-07T05:40:05.101Z,20.73
2024-03-07T05:42:33.381Z,20.80
2024-03-07T05:45:01.359Z,20.63
2024-03-07T05:47:30.640Z,20.08
2024-03-07T05:49:58.305Z,19.58
2024-03-07T05:52:26.087Z,19.83
2024-03-07T05:54:53.684Z,19.52
2024-03-07T05:57:21.266Z,19.48
2024-03-07T05:59:49.044Z,20.05
2024-03-07T06:02:17.303Z,20.42
2024-03-07T06:04:46.910Z,19.90
2024-03-07T06:07:14.540Z,19.08
2024-03-07T06:09:42.172Z,19.13
2024-03-07T06:12:16.673Z,19.42
2024-03-07T06:14:51.409Z,20.95
2024-03-07T06:17:22.428Z,24.00
2024-03-07T06:19:51.652Z,21.95
2024-03-07T06:22:19.259Z,20.98
2024-03-07T06:24:47.246Z,19.13
2024-03-07T06:27:28.071Z,19.52
2024-03-07T06:29:56.206Z,19.05
2024-03-07T06:32:25.067Z,18.58
2024-03-07T06:34:54.568Z,21.13
2024-03-07T06:37:22.736Z,18.00
2024-03-07T06:39:50.395Z,17.85
2024-03-07T06:42:18.878Z,18.55
2024-03-07T06:44:47.181Z,18.23
2024-03-07T06:47:14.931Z,24.55
2024-03-07T06:49:42.596Z,24.92
2024-03-07T06:52:11.619Z,24.65
2024-03-07T06:54:39.408Z,26.00
2024-03-07T06:57:07.006Z,24.15
2024-03-07T06:59:34.649Z,22.42
2024-03-07T07:02:02.584Z,20.75
2024-03-07T07:04:42.601Z,19.20
2024-03-07T07:07:13.898Z,19.63
2024-03-07T07:09:42.963Z,19.17
2024-03-07T07:12:10.798Z,19.98
2024-03-07T07:14:39.138Z,19.52
2024-03-07T07:17:10.224Z,19.52
2024-03-07T07:19:38.796Z,22.67
2024-03-07T07:22:07.282Z,26.42
2024-03-07T07:24:36.418Z,20.38
2024-03-07T07:27:04.493Z,21.65
2024-03-07T07:29:32.175Z,19.77
2024-03-07T07:31:59.891Z,19.75
2024-03-07T07:34:27.482Z,20.15
2024-03-07T07:36:55.307Z,20.42
2024-03-07T07:39:22.979Z,21.75
2024-03-07T07:41:51.924Z,21.55
2024-03-07T07:44:20.443Z,21.42
2024-03-07T07:46:48.036Z,21.13
2024-03-07T07:49:17.018Z,21.23
2024-03-07T07:51:44.580Z,21.17
2024-03-07T07:54:12.158Z,19.55
2024-03-07T07:56:39.722Z,19.25
2024-03-07T07:59:10.406Z,19.88
2024-03-07T08:01:38.095Z,18.65
2024-03-07T08:04:06.101Z,17.83
2024-03-07T08:06:33.761Z,18.00
2024-03-07T08:09:01.568Z,19.20
2024-03-07T08:11:29.298Z,22.45
2024-03-07T08:13:56.956Z,17.88
2024-03-07T08:16:25.943Z,17.83
2024-03-07T08:18:53.596Z,16.45
2024-03-07T08:21:21.256Z,16.05
2024-03-07T08:23:48.909Z,15.70
2024-03-07T08:26:17.244Z,14.73
2024-03-07T08:28:44.968Z,14.60
2024-03-07T08:31:13.614Z,14.25
2024-03-07T08:33:42.701Z,14.98
2024-03-07T08:36:11.162Z,17.17
2024-03-07T08:38:39.427Z,15.80
2024-03-07T08:41:07.111Z,14.73
2024-03-07T08:43:35.068Z,14.07
2024-03-07T08:46:02.687Z,14.45
2024-03-07T08:48:30.742Z,13.35
2024-03-07T08:50:59.841Z,14.45
2024-03-07T08:53:27.517Z,14.20
2024-03-07T08:55:55.133Z,13.57
2024-03-07T08:58:22.712Z,13.90
2024-03-07T09:00:53.336Z,14.30
2024-03-07T09:03:23.008Z,14.30
2024-03-07T09:05:51.748Z,14.73
2024-03-07T09:08:20.753Z,15.25
2024-03-07T09:10:49.168Z,13.98
2024-03-07T09:13:16.773Z,13.98
2024-03-07T09:15:44.489Z,14.25
2024-03-07T09:18:13.204Z,14.63
2024-03-07T09:20:41.123Z,14.00
2024-03-07T09:23:08.858Z,15.55
2024-03-07T09:25:37.877Z,13.95
2024-03-07T09:28:07.114Z,14.48
2024-03-07T09:30:35.978Z,14.45
2024-03-07T09:33:03.768Z,14.98
2024-03-07T09:35:31.742Z,14.40
2024-03-07T09:37:59.402Z,14.88
2024-03-07T09:40:27.924Z,13.82
2024-03-07T09:42:59.049Z,14.40
2024-03-07T09:45:31.477Z,13.90
2024-03-07T09:47:59.954Z,14.32
2024-03-07T09:50:31.327Z,13.98
2024-03-07T09:53:01.772Z,15.15
2024-03-07T09:55:29.669Z,14.20
2024-03-07T09:58:00.897Z,13.98
2024-03-07T10:00:31.342Z,13.48
2024-03-07T10:03:01.429Z,19.02
2024-03-07T10:05:30.858Z,15.43
2024-03-07T10:07:58.895Z,16.33
2024-03-07T10:10:27.107Z,16.30
2024-03-07T10:12:55.321Z,15.98
2024-03-07T10:15:30.038Z,16.15
2024-03-07T10:17:57.929Z,15.30
2024-03-07T10:20:26.026Z,15.32
2024-03-07T10:22:53.819Z,16.05
2024-03-07T10:25:25.331Z,15.30
2024-03-07T10:27:53.665Z,16.30
2024-03-07T10:30:23.110Z,16.75
2024-03-07T10:32:55.969Z,15.95
2024-03-07T10:35:25.359Z,16.87
2024-03-07T10:37:55.017Z,17.63
2024-03-07T10:40:23.554Z,17.13
2024-03-07T10:42:54.155Z,17.02
2024-03-07T10:45:23.527Z,17.30
2024-03-07T10:47:56.830Z,16.85
2024-03-07T10:50:40.299Z,16.85
2024-03-07T10:53:12.516Z,17.75
2024-03-07T10:55:45.890Z,18.63
2024-03-07T11:00:47.667Z,16.67
2024-03-07T11:03:20.353Z,17.83
2024-03-07T11:05:48.857Z,16.45
2024-03-07T11:08:17.598Z,17.25
2024-03-07T11:10:48.259Z,19.02
2024-03-07T11:13:17.801Z,18.05
2024-03-07T11:15:48.952Z,16.98
2024-03-07T11:18:18.687Z,17.10
2024-03-07T11:20:48.280Z,17.60
2024-03-07T11:23:29.807Z,17.10
2024-03-07T11:26:08.398Z,18.73
2024-03-07T11:28:38.360Z,17.63
2024-03-07T11:31:13.792Z,17.80
2024-03-07T11:33:44.735Z,17.73
2024-03-07T11:36:13.970Z,21.52
2024-03-07T11:38:47.191Z,18.88
2024-03-07T11:41:15.164Z,16.45
2024-03-07T11:43:44.416Z,15.70
2024-03-07T11:46:17.601Z,16.25
2024-03-07T11:48:46.854Z,16.25
2024-03-07T11:51:16.428Z,16.95
2024-03-07T11:53:49.021Z,16.35
2024-03-07T11:56:18.648Z,18.33
2024-03-07T11:58:53.300Z,16.92
2024-03-07T12:01:26.204Z,17.85
2024-03-07T12:03:57.631Z,17.23
2024-03-07T12:06:27.345Z,16.60
2024-03-07T12:08:55.099Z,16.33
2024-03-07T12:11:23.127Z,17.15
2024-03-07T12:13:52.271Z,18.70
2024-03-07T12:16:19.998Z,16.83
2024-03-07T12:18:49.576Z,15.68
2024-03-07T12:21:19.828Z,20.15
2024-03-07T12:23:47.662Z,18.17
2024-03-07T12:26:26.079Z,17.27
2024-03-07T12:28:54.278Z,18.23
2024-03-07T12:31:25.684Z,16.63
2024-03-07T12:33:54.022Z,16.42
2024-03-07T12:36:28.047Z,16.50
2024-03-07T12:38:56.740Z,17.15
2024-03-07T12:41:24.588Z,17.65
2024-03-07T12:43:52.812Z,16.38
2024-03-07T12:46:20.628Z,16.15
2024-03-07T12:48:50.311Z,16.30
2024-03-07T12:51:20.453Z,16.08
2024-03-07T12:53:50.520Z,16.35
2024-03-07T12:56:19.000Z,16.90
2024-03-07T12:58:47.875Z,15.43
2024-03-07T13:01:16.432Z,15.95
2024-03-07T13:03:46.674Z,16.38
2024-03-07T13:06:14.602Z,16.48
2024-03-07T13:08:42.555Z,16.15
2024-03-07T13:11:13.171Z,16.40
2024-03-07T13:13:41.437Z,16.33
2024-03-07T13:16:10.256Z,17.42
2024-03-07T13:18:38.789Z,16.85
2024-03-07T13:21:08.263Z,15.88
2024-03-07T13:23:37.342Z,16.33
2024-03-07T13:26:09.788Z,16.20
2024-03-07T13:28:38.988Z,16.30
2024-03-07T13:31:06.711Z,16.23
2024-03-07T13:33:36.355Z,16.02
2024-03-07T13:36:05.617Z,14.55
2024-03-07T13:38:33.234Z,15.48
2024-03-07T13:41:04.679Z,13.57
2024-03-07T13:43:34.832Z,16.42
2024-03-07T13:46:04.991Z,16.20
2024-03-07T13:48:34.243Z,14.07
2024-03-07T13:51:08.889Z,14.75
2024-03-07T13:53:47.909Z,14.90
2024-03-07T13:56:36.541Z,14.88
2024-03-07T13:59:54.114Z,16.45
2024-03-07T14:02:50.279Z,14.30
2024-03-07T14:05:41.206Z,15.50
2024-03-07T14:08:28.143Z,14.90
2024-03-07T14:11:28.540Z,17.00
2024-03-07T14:14:15.278Z,15.70
2024-03-07T14:17:07.483Z,16.88
2024-03-07T14:20:16.599Z,16.45
2024-03-07T14:23:06.742Z,15.52
2024-03-07T14:25:53.037Z,16.38
2024-03-07T14:28:47.577Z,16.73
2024-03-07T14:31:15.397Z,16.23
2024-03-07T14:33:55.883Z,17.05
2024-03-07T14:36:37.814Z,16.88
2024-03-07T14:39:06.608Z,17.05
2024-03-07T14:41:49.816Z,16.40
2024-03-07T14:44:18.538Z,16.73
2024-03-07T14:46:47.994Z,15.93
2024-03-07T14:49:20.382Z,16.58
2024-03-07T14:51:58.635Z,16.45
2024-03-07T14:54:28.650Z,16.75
2024-03-07T14:56:56.828Z,16.67
2024-03-07T14:59:24.692Z,16.55
2024-03-07T15:01:53.650Z,15.77
2024-03-07T15:04:22.326Z,18.20
2024-03-07T15:06:53.409Z,18.40
2024-03-07T15:09:21.613Z,16.75
2024-03-07T15:11:50.464Z,17.40
2024-03-07T15:14:23.022Z,16.38
2024-03-07T15:16:58.496Z,17.50
2024-03-07T15:19:26.095Z,15.98
2024-03-07T15:21:55.118Z,15.00
2024-03-07T15:24:22.749Z,17.30
2024-03-07T15:26:51.563Z,14.63
2024-03-07T15:29:22.995Z,15.27
2024-03-07T15:31:51.671Z,15.10
2024-03-07T15:34:19.249Z,15.68
2024-03-07T15:36:47.728Z,16.00
2024-03-07T15:39:27.440Z,14.23
2024-03-07T15:41:55.790Z,14.32
2024-03-07T15:44:23.554Z,14.40
2024-03-07T15:46:51.246Z,14.13
2024-03-07T15:49:19.269Z,13.75
2024-03-07T15:51:47.608Z,14.63
2024-03-07T15:54:19.644Z,14.98
2024-03-07T15:56:49.805Z,14.07
2024-03-07T15:59:17.567Z,13.60
2024-03-07T16:01:45.466Z,14.05
2024-03-07T16:04:13.525Z,13.98
2024-03-07T16:06:44.854Z,12.98
2024-03-07T16:09:14.596Z,14.00
2024-03-07T16:11:43.643Z,13.45
2024-03-07T16:14:12.729Z,13.90
2024-03-07T16:16:42.456Z,12.65
2024-03-07T16:19:11.498Z,12.68
2024-03-07T16:21:40.082Z,12.88
2024-03-07T16:24:09.604Z,13.18
2024-03-07T16:26:37.576Z,14.40
2024-03-07T16:29:06.987Z,13.25
2024-03-07T16:31:34.609Z,13.10
2024-03-07T16:34:02.249Z,14.30
2024-03-07T16:36:29.882Z,14.52
2024-03-07T16:38:57.842Z,14.95
2024-03-07T16:41:25.725Z,13.48
2024-03-07T16:43:53.359Z,12.93
2024-03-07T16:46:23.060Z,13.10
2024-03-07T16:48:51.363Z,16.17
2024-03-07T16:51:19.021Z,14.32
2024-03-07T16:53:46.694Z,13.90
2024-03-07T16:56:15.742Z,14.23
2024-03-07T16:58:43.409Z,14.18
2024-03-07T17:01:11.164Z,13.85
2024-03-07T17:03:40.150Z,14.27
2024-03-07T17:06:10.925Z,14.90
2024-03-07T17:08:39.180Z,14.57
2024-03-07T17:11:07.649Z,13.80
2024-03-07T17:13:37.908Z,13.80
2024-03-07T17:16:06.340Z,14.75
2024-03-07T17:18:35.143Z,15.02
2024-03-07T17:21:07.355Z,14.00
2024-03-07T17:23:35.026Z,14.88
2024-03-07T17:26:02.737Z,15.68
2024-03-07T17:28:30.893Z,14.35
2024-03-07T17:30:58.508Z,16.27
2024-03-07T17:33:27.061Z,13.98
2024-03-07T17:35:55.161Z,14.15
2024-03-07T17:38:24.176Z,13.55
2024-03-07T17:40:51.746Z,13.43
2024-03-07T17:43:19.787Z,14.00
2024-03-07T17:45:47.538Z,13.82
2024-03-07T17:48:15.227Z,14.65
2024-03-07T17:50:44.762Z,14.18
2024-03-07T17:53:14.991Z,15.70
2024-03-07T17:55:44.800Z,13.55
2024-03-07T17:58:14.284Z,14.00
2024-03-07T18:00:43.802Z,12.85
2024-03-07T18:03:12.361Z,12.55
2024-03-07T18:05:44.186Z,12.55
2024-03-07T18:08:33.560Z,12.30
2024-03-07T18:11:07.509Z,13.43
2024-03-07T18:13:35.422Z,13.48
2024-03-07T18:16:03.040Z,19.02
2024-03-07T18:18:33.291Z,16.90
2024-03-07T18:21:02.294Z,12.38
2024-03-07T18:23:30.313Z,14.25
2024-03-07T18:26:00.875Z,16.88
2024-03-07T18:28:30.024Z,12.68
2024-03-07T18:31:01.094Z,11.80
2024-03-07T18:33:32.342Z,10.88
2024-03-07T18:36:01.543Z,10.70
2024-03-07T18:38:29.338Z,10.95
2024-03-07T18:40:57.114Z,11.32
2024-03-07T18:43:24.742Z,11.30
2024-03-07T18:45:53.789Z,11.85
2024-03-07T18:48:21.459Z,12.93
2024-03-07T18:50:50.194Z,12.02
2024-03-07T18:53:21.039Z,10.98
2024-03-07T18:55:51.002Z,11.73
2024-03-07T18:58:23.442Z,12.25
2024-03-07T19:00:51.328Z,12.30
2024-03-07T19:03:22.398Z,11.45
2024-03-07T19:05:53.096Z,11.40
2024-03-07T19:08:25.058Z,11.45
2024-03-07T19:10:54.412Z,12.15
2024-03-07T19:13:22.407Z,11.55
2024-03-07T19:15:53.217Z,11.68
2024-03-07T19:18:23.478Z,11.63
2024-03-07T19:20:55.582Z,10.90
2024-03-07T19:23:25.501Z,10.93
2024-03-07T19:25:53.640Z,9.77
2024-03-07T19:28:21.443Z,10.18
2024-03-07T19:30:51.787Z,10.07
2024-03-07T19:33:21.566Z,10.63
2024-03-07T19:35:53.317Z,10.52
2024-03-07T19:38:21.283Z,10.70
2024-03-07T19:40:50.992Z,10.40
2024-03-07T19:43:20.832Z,11.43
2024-03-07T19:45:48.609Z,13.93
2024-03-07T19:48:16.390Z,11.63
2024-03-07T19:50:46.791Z,10.55
2024-03-07T19:53:16.679Z,10.00
2024-03-07T19:55:46.058Z,10.48
2024-03-07T19:58:14.021Z,9.90
2024-03-07T20:00:45.596Z,9.93
2024-03-07T20:03:15.704Z,9.88
2024-03-07T20:05:43.845Z,8.98
2024-03-07T20:08:15.646Z,9.07
2024-03-07T20:10:48.993Z,10.25
2024-03-07T20:13:17.896Z,9.18
2024-03-07T20:15:46.966Z,9.98
2024-03-07T20:18:15.223Z,10.45
2024-03-07T20:20:44.994Z,11.48
2024-03-07T20:23:14.617Z,10.82
2024-03-07T20:25:42.794Z,11.43
2024-03-07T20:28:13.642Z,10.25
2024-03-07T20:30:43.200Z,10.50
2024-03-07T20:33:11.322Z,11.25
2024-03-07T20:35:39.382Z,11.38
2024-03-07T20:38:10.751Z,10.02
2024-03-07T20:40:38.773Z,12.27
2024-03-07T20:43:06.499Z,12.13
2024-03-07T20:45:36.478Z,11.45
2024-03-07T20:48:06.532Z,10.40
2024-03-07T20:50:40.472Z,9.93
2024-03-07T20:53:10.661Z,10.30
2024-03-07T20:55:41.024Z,10.15
2024-03-07T20:58:10.487Z,10.70
2024-03-07T21:00:46.162Z,10.18
2024-03-07T21:03:15.184Z,11.30
2024-03-07T21:05:44.506Z,10.80
2024-03-07T21:08:12.143Z,10.00
2024-03-07T21:10:40.335Z,10.52
2024-03-07T21:13:08.420Z,11.40
2024-03-07T21:15:36.247Z,10.65
2024-03-07T21:18:09.251Z,10.90
2024-03-07T21:20:37.821Z,10.55
2024-03-07T21:23:08.095Z,10.73
2024-03-07T21:25:36.881Z,10.75
2024-03-07T21:28:06.074Z,11.25
2024-03-07T21:30:33.836Z,11.07
2024-03-07T21:33:01.711Z,11.00
2024-03-07T21:35:31.921Z,11.00
2024-03-07T21:38:00.316Z,11.30
2024-03-07T21:40:28.178Z,11.23
2024-03-07T21:42:56.170Z,11.15
2024-03-07T21:45:23.786Z,10.48
2024-03-07T21:47:51.466Z,11.18
2024-03-07T21:50:20.325Z,10.32
2024-03-07T21:52:50.121Z,10.95
2024-03-07T21:55:20.915Z,10.63
2024-03-07T21:57:49.360Z,11.50
2024-03-07T22:00:19.000Z,11.27
2024-03-07T22:02:57.726Z,10.27
2024-03-07T22:05:29.697Z,11.90
2024-03-07T22:07:59.750Z,10.77
2024-03-07T22:10:28.274Z,11.63
2024-03-07T22:12:56.430Z,12.25
2024-03-07T22:15:24.881Z,11.57
2024-03-07T22:17:54.808Z,10.85
2024-03-07T22:20:24.267Z,11.20
2024-03-07T22:22:53.853Z,11.45
2024-03-07T22:25:23.999Z,10.95
2024-03-07T22:27:53.085Z,10.98
2024-03-07T22:30:24.221Z,11.25
2024-03-07T22:32:53.758Z,11.20
2024-03-07T22:35:22.434Z,12.13
2024-03-07T22:37:52.143Z,10.77
2024-03-07T22:40:26.937Z,11.02
2024-03-07T22:42:54.976Z,11.63
2024-03-07T22:45:23.913Z,10.90
2024-03-07T22:47:53.609Z,11.82
2024-03-07T22:50:28.807Z,11.38
2024-03-07T22:52:59.744Z,12.25
2024-03-07T22:55:29.058Z,10.88
2024-03-07T22:57:56.870Z,12.00
2024-03-07T23:00:28.030Z,11.27
2024-03-07T23:02:59.550Z,13.02
2024-03-07T23:05:28.542Z,11.02
2024-03-07T23:07:56.999Z,12.05
2024-03-07T23:10:24.682Z,12.20
2024-03-07T23:12:54.217Z,12.27
2024-03-07T23:15:25.446Z,11.10
2024-03-07T23:17:55.399Z,11.95
2024-03-07T23:20:25.274Z,12.13
2024-03-07T23:22:55.751Z,12.07
2024-03-07T23:25:23.954Z,12.52
2024-03-07T23:27:54.349Z,11.85
2024-03-07T23:30:24.322Z,12.32
2024-03-07T23:32:53.421Z,11.73
2024-03-07T23:35:21.730Z,11.80
2024-03-07T23:37:51.568Z,11.95
2024-03-07T23:40:19.855Z,12.48
2024-03-07T23:42:49.881Z,11.88
2024-03-07T23:45:19.531Z,12.30
2024-03-07T23:47:48.348Z,11.98
2024-03-07T23:50:16.185Z,12.10
2024-03-07T23:52:45.287Z,11.68
2024-03-07T23:55:14.341Z,12.68
2024-03-07T23:57:43.324Z,12.52
